sensor_id;sensor_type;location;lat;lon;timestamp;pressure;altitude;pressure_sealevel;temperature;humidity
67013;BME280;53926;47.406;19.188;2023-03-30T00:00:11;100837.00;;;2.19;100.00
67013;BME280;53926;47.406;19.188;2023-03-30T00:02:47;100830.59;;;2.32;100.00
67013;BME280;53926;47.406;19.188;2023-03-30T00:05:18;100835.72;;;2.42;100.00
67013;BME280;53926;47.406;19.188;2023-03-30T00:07:45;100836.97;;;2.66;100.00
67013;BME280;53926;47.406;19.188;2023-03-30T00:10:15;100828.09;;;2.88;100.00
67013;BME280;53926;47.406;19.188;2023-03-30T00:12:47;100826.56;;;3.13;100.00
67013;BME280;53926;47.406;19.188;2023-03-30T00:15:17;100819.87;;;3.38;100.00
67013;BME280;53926;47.406;19.188;2023-03-30T00:17:44;100812.97;;;3.57;100.00
67013;BME280;53926;47.406;19.188;2023-03-30T00:20:13;100817.00;;;3.78;100.00
67013;BME280;53926;47.406;19.188;2023-03-30T00:22:41;100814.81;;;3.91;100.00
67013;BME280;53926;47.406;19.188;2023-03-30T00:25:10;100816.31;;;3.93;100.00
67013;BME280;53926;47.406;19.188;2023-03-30T00:27:38;100824.06;;;4.02;100.00
67013;BME280;53926;47.406;19.188;2023-03-30T00:30:07;100807.34;;;4.06;100.00
67013;BME280;53926;47.406;19.188;2023-03-30T00:32:35;100818.53;;;4.15;100.00
67013;BME280;53926;47.406;19.188;2023-03-30T00:35:02;100814.06;;;4.25;100.00
67013;BME280;53926;47.406;19.188;2023-03-30T00:37:31;100813.81;;;4.36;100.00
67013;BME280;53926;47.406;19.188;2023-03-30T00:39:58;100816.56;;;4.35;100.00
67013;BME280;53926;47.406;19.188;2023-03-30T00:42:25;100818.38;;;4.42;100.00
67013;BME280;53926;47.406;19.188;2023-03-30T00:45:27;100808.69;;;4.44;100.00
67013;BME280;53926;47.406;19.188;2023-03-30T00:48:13;100804.84;;;4.48;99.94
67013;BME280;53926;47.406;19.188;2023-03-30T00:51:04;100800.66;;;4.47;100.00
67013;BME280;53926;47.406;19.188;2023-03-30T00:53:40;100805.50;;;4.51;100.00
67013;BME280;53926;47.406;19.188;2023-03-30T00:56:10;100793.41;;;4.51;98.19
67013;BME280;53926;47.406;19.188;2023-03-30T00:58:39;100786.34;;;4.61;97.19
67013;BME280;53926;47.406;19.188;2023-03-30T01:01:08;100781.31;;;4.52;98.30
67013;BME280;53926;47.406;19.188;2023-03-30T01:03:39;100780.50;;;4.51;97.55
67013;BME280;53926;47.406;19.188;2023-03-30T01:06:10;100781.66;;;4.57;96.82
67013;BME280;53926;47.406;19.188;2023-03-30T01:08:38;100773.75;;;4.58;96.57
67013;BME280;53926;47.406;19.188;2023-03-30T01:11:06;100771.03;;;4.60;94.61
67013;BME280;53926;47.406;19.188;2023-03-30T01:13:36;100774.62;;;4.67;94.44
67013;BME280;53926;47.406;19.188;2023-03-30T01:22:12;100766.69;;;4.18;97.16
67013;BME280;53926;47.406;19.188;2023-03-30T01:41:33;100735.53;;;3.32;100.00
67013;BME280;53926;47.406;19.188;2023-03-30T01:44:28;100729.19;;;3.45;100.00
67013;BME280;53926;47.406;19.188;2023-03-30T01:47:08;100732.37;;;3.65;100.00
67013;BME280;53926;47.406;19.188;2023-03-30T01:52:36;100734.63;;;3.86;100.00
67013;BME280;53926;47.406;19.188;2023-03-30T01:55:13;100737.53;;;3.91;98.69
67013;BME280;53926;47.406;19.188;2023-03-30T01:58:43;100734.56;;;3.78;98.83
67013;BME280;53926;47.406;19.188;2023-03-30T02:00:37;100735.97;;;3.72;99.19
67013;BME280;53926;47.406;19.188;2023-03-30T02:03:11;100730.72;;;3.55;99.19
67013;BME280;53926;47.406;19.188;2023-03-30T02:05:40;100736.88;;;3.36;100.00
67013;BME280;53926;47.406;19.188;2023-03-30T02:08:11;100731.22;;;3.33;100.00
67013;BME280;53926;47.406;19.188;2023-03-30T02:10:39;100733.56;;;3.26;100.00
67013;BME280;53926;47.406;19.188;2023-03-30T02:13:08;100721.22;;;3.12;100.00
67013;BME280;53926;47.406;19.188;2023-03-30T02:15:43;100721.06;;;2.95;100.00
67013;BME280;53926;47.406;19.188;2023-03-30T02:18:10;100717.31;;;2.72;100.00
67013;BME280;53926;47.406;19.188;2023-03-30T02:20:37;100724.91;;;2.45;100.00
67013;BME280;53926;47.406;19.188;2023-03-30T02:23:05;100725.84;;;2.17;100.00
67013;BME280;53926;47.406;19.188;2023-03-30T02:25:33;100718.34;;;1.95;100.00
67013;BME280;53926;47.406;19.188;2023-03-30T02:28:01;100707.75;;;1.81;100.00
67013;BME280;53926;47.406;19.188;2023-03-30T02:30:32;100711.84;;;1.54;100.00
67013;BME280;53926;47.406;19.188;2023-03-30T02:32:59;100704.84;;;1.36;100.00
67013;BME280;53926;47.406;19.188;2023-03-30T02:35:45;100699.19;;;1.33;100.00
67013;BME280;53926;47.406;19.188;2023-03-30T02:41:32;100707.41;;;1.36;100.00
67013;BME280;53926;47.406;19.188;2023-03-30T02:51:54;100702.84;;;1.11;100.00
67013;BME280;53926;47.406;19.188;2023-03-30T02:54:45;100711.22;;;0.93;100.00
67013;BME280;53926;47.406;19.188;2023-03-30T02:59:57;100713.47;;;0.77;100.00
67013;BME280;53926;47.406;19.188;2023-03-30T03:02:34;100698.09;;;0.67;100.00
67013;BME280;53926;47.406;19.188;2023-03-30T03:05:05;100699.72;;;0.87;100.00
67013;BME280;53926;47.406;19.188;2023-03-30T03:07:33;100707.44;;;0.78;100.00
67013;BME280;53926;47.406;19.188;2023-03-30T03:10:00;100710.47;;;0.52;100.00
67013;BME280;53926;47.406;19.188;2023-03-30T03:12:27;100706.56;;;0.48;100.00
67013;BME280;53926;47.406;19.188;2023-03-30T03:14:57;100694.63;;;0.97;100.00
67013;BME280;53926;47.406;19.188;2023-03-30T03:17:23;100696.22;;;1.28;100.00
67013;BME280;53926;47.406;19.188;2023-03-30T03:19:54;100707.25;;;1.57;100.00
67013;BME280;53926;47.406;19.188;2023-03-30T03:22:21;100716.56;;;1.58;100.00
67013;BME280;53926;47.406;19.188;2023-03-30T03:24:48;100717.31;;;1.78;100.00
67013;BME280;53926;47.406;19.188;2023-03-30T03:27:15;100724.47;;;1.94;100.00
67013;BME280;53926;47.406;19.188;2023-03-30T03:29:42;100724.13;;;2.07;100.00
67013;BME280;53926;47.406;19.188;2023-03-30T03:32:08;100721.22;;;2.20;100.00
67013;BME280;53926;47.406;19.188;2023-03-30T03:34:35;100717.94;;;2.38;100.00
67013;BME280;53926;47.406;19.188;2023-03-30T03:37:01;100705.84;;;2.66;100.00
67013;BME280;53926;47.406;19.188;2023-03-30T03:39:28;100709.16;;;2.76;100.00
67013;BME280;53926;47.406;19.188;2023-03-30T03:41:55;100714.66;;;2.81;100.00
67013;BME280;53926;47.406;19.188;2023-03-30T03:44:21;100723.44;;;2.89;100.00
67013;BME280;53926;47.406;19.188;2023-03-30T03:46:48;100716.22;;;2.92;100.00
67013;BME280;53926;47.406;19.188;2023-03-30T03:49:15;100726.38;;;2.94;100.00
67013;BME280;53926;47.406;19.188;2023-03-30T03:51:41;100735.41;;;2.98;100.00
67013;BME280;53926;47.406;19.188;2023-03-30T03:54:08;100724.31;;;2.97;100.00
67013;BME280;53926;47.406;19.188;2023-03-30T03:56:34;100714.91;;;3.06;100.00
67013;BME280;53926;47.406;19.188;2023-03-30T03:59:01;100730.03;;;3.09;100.00
67013;BME280;53926;47.406;19.188;2023-03-30T04:01:29;100723.94;;;3.10;100.00
67013;BME280;53926;47.406;19.188;2023-03-30T04:03:56;100725.34;;;3.04;100.00
67013;BME280;53926;47.406;19.188;2023-03-30T04:06:23;100715.44;;;3.10;100.00
67013;BME280;53926;47.406;19.188;2023-03-30T04:08:50;100715.63;;;3.16;100.00
67013;BME280;53926;47.406;19.188;2023-03-30T04:11:16;100693.38;;;3.07;99.88
67013;BME280;53926;47.406;19.188;2023-03-30T04:13:43;100701.63;;;2.93;100.00
67013;BME280;53926;47.406;19.188;2023-03-30T04:16:10;100694.69;;;2.75;100.00
67013;BME280;53926;47.406;19.188;2023-03-30T04:18:36;100693.56;;;2.60;100.00
67013;BME280;53926;47.406;19.188;2023-03-30T04:21:04;100690.63;;;2.55;100.00
67013;BME280;53926;47.406;19.188;2023-03-30T04:23:33;100692.78;;;2.31;100.00
67013;BME280;53926;47.406;19.188;2023-03-30T04:26:01;100701.31;;;2.32;100.00
67013;BME280;53926;47.406;19.188;2023-03-30T04:28:28;100699.09;;;2.37;100.00
67013;BME280;53926;47.406;19.188;2023-03-30T04:30:59;100689.31;;;2.68;100.00
67013;BME280;53926;47.406;19.188;2023-03-30T04:33:27;100680.72;;;2.78;100.00
67013;BME280;53926;47.406;19.188;2023-03-30T04:35:54;100678.00;;;2.79;100.00
67013;BME280;53926;47.406;19.188;2023-03-30T04:38:21;100670.59;;;2.94;100.00
67013;BME280;53926;47.406;19.188;2023-03-30T04:40:52;100665.41;;;3.12;99.94
67013;BME280;53926;47.406;19.188;2023-03-30T04:43:18;100677.19;;;3.15;99.39
67013;BME280;53926;47.406;19.188;2023-03-30T04:45:50;100678.84;;;3.24;99.25
67013;BME280;53926;47.406;19.188;2023-03-30T04:48:18;100678.16;;;3.40;98.41
67013;BME280;53926;47.406;19.188;2023-03-30T04:50:46;100678.41;;;3.55;97.49
67013;BME280;53926;47.406;19.188;2023-03-30T04:53:15;100675.28;;;3.69;95.11
67013;BME280;53926;47.406;19.188;2023-03-30T04:55:47;100681.44;;;3.76;95.52
67013;BME280;53926;47.406;19.188;2023-03-30T04:58:14;100677.28;;;3.84;93.72
67013;BME280;53926;47.406;19.188;2023-03-30T05:00:40;100675.06;;;3.89;93.75
67013;BME280;53926;47.406;19.188;2023-03-30T05:03:07;100677.19;;;4.02;93.35
67013;BME280;53926;47.406;19.188;2023-03-30T05:05:34;100677.09;;;4.20;92.61
67013;BME280;53926;47.406;19.188;2023-03-30T05:08:01;100665.06;;;4.37;90.89
67013;BME280;53926;47.406;19.188;2023-03-30T05:10:28;100668.81;;;4.42;93.08
67013;BME280;53926;47.406;19.188;2023-03-30T05:12:55;100669.12;;;4.47;91.13
67013;BME280;53926;47.406;19.188;2023-03-30T05:15:22;100669.94;;;4.48;90.54
67013;BME280;53926;47.406;19.188;2023-03-30T05:17:48;100669.28;;;4.54;89.29
67013;BME280;53926;47.406;19.188;2023-03-30T05:20:16;100666.28;;;4.67;88.57
67013;BME280;53926;47.406;19.188;2023-03-30T05:22:43;100673.34;;;4.48;89.10
67013;BME280;53926;47.406;19.188;2023-03-30T05:25:12;100676.22;;;4.62;90.17
67013;BME280;53926;47.406;19.188;2023-03-30T05:27:39;100687.22;;;4.64;90.36
67013;BME280;53926;47.406;19.188;2023-03-30T05:30:06;100691.25;;;4.91;87.96
67013;BME280;53926;47.406;19.188;2023-03-30T05:32:33;100684.03;;;4.95;88.11
67013;BME280;53926;47.406;19.188;2023-03-30T05:35:00;100679.00;;;4.77;89.50
67013;BME280;53926;47.406;19.188;2023-03-30T05:37:27;100683.84;;;4.88;87.60
67013;BME280;53926;47.406;19.188;2023-03-30T05:39:53;100672.09;;;4.94;88.05
67013;BME280;53926;47.406;19.188;2023-03-30T05:42:20;100668.38;;;5.05;85.87
67013;BME280;53926;47.406;19.188;2023-03-30T05:44:47;100671.25;;;5.26;85.72
67013;BME280;53926;47.406;19.188;2023-03-30T05:47:13;100671.75;;;5.30;85.32
67013;BME280;53926;47.406;19.188;2023-03-30T05:49:42;100663.44;;;5.67;84.92
67013;BME280;53926;47.406;19.188;2023-03-30T05:52:09;100666.94;;;5.83;82.79
67013;BME280;53926;47.406;19.188;2023-03-30T05:54:36;100653.66;;;5.94;81.50
67013;BME280;53926;47.406;19.188;2023-03-30T05:57:03;100665.31;;;5.98;81.91
67013;BME280;53926;47.406;19.188;2023-03-30T05:59:30;100657.84;;;6.03;81.85
67013;BME280;53926;47.406;19.188;2023-03-30T06:01:57;100666.41;;;6.35;79.92
67013;BME280;53926;47.406;19.188;2023-03-30T06:04:24;100663.16;;;6.10;81.83
67013;BME280;53926;47.406;19.188;2023-03-30T06:06:52;100664.91;;;6.18;79.14
67013;BME280;53926;47.406;19.188;2023-03-30T06:09:19;100658.94;;;6.40;80.66
67013;BME280;53926;47.406;19.188;2023-03-30T06:11:45;100665.66;;;6.81;77.53
67013;BME280;53926;47.406;19.188;2023-03-30T06:14:12;100681.84;;;6.98;75.87
67013;BME280;53926;47.406;19.188;2023-03-30T06:16:39;100677.75;;;7.42;76.34
67013;BME280;53926;47.406;19.188;2023-03-30T06:19:06;100675.97;;;7.04;72.35
67013;BME280;53926;47.406;19.188;2023-03-30T06:21:33;100661.25;;;7.05;72.54
67013;BME280;53926;47.406;19.188;2023-03-30T06:23:59;100659.28;;;7.07;73.65
67013;BME280;53926;47.406;19.188;2023-03-30T06:26:26;100659.81;;;7.55;71.20
67013;BME280;53926;47.406;19.188;2023-03-30T06:28:53;100656.19;;;8.37;68.15
67013;BME280;53926;47.406;19.188;2023-03-30T06:31:20;100656.38;;;8.36;68.26
67013;BME280;53926;47.406;19.188;2023-03-30T06:33:46;100646.69;;;8.08;68.64
67013;BME280;53926;47.406;19.188;2023-03-30T06:36:15;100645.78;;;8.95;64.88
67013;BME280;53926;47.406;19.188;2023-03-30T06:38:42;100644.50;;;9.41;62.04
67013;BME280;53926;47.406;19.188;2023-03-30T06:41:09;100639.19;;;10.18;57.67
67013;BME280;53926;47.406;19.188;2023-03-30T06:43:38;100635.69;;;10.39;55.84
67013;BME280;53926;47.406;19.188;2023-03-30T06:46:05;100639.81;;;10.20;58.90
67013;BME280;53926;47.406;19.188;2023-03-30T06:48:32;100633.53;;;10.01;59.78
67013;BME280;53926;47.406;19.188;2023-03-30T06:50:59;100637.06;;;10.35;56.76
67013;BME280;53926;47.406;19.188;2023-03-30T06:53:26;100639.53;;;10.63;56.72
67013;BME280;53926;47.406;19.188;2023-03-30T06:55:57;100632.72;;;10.69;55.53
67013;BME280;53926;47.406;19.188;2023-03-30T06:58:24;100633.91;;;10.46;55.15
67013;BME280;53926;47.406;19.188;2023-03-30T07:00:53;100633.28;;;10.37;56.78
67013;BME280;53926;47.406;19.188;2023-03-30T07:03:20;100640.37;;;9.25;61.35
67013;BME280;53926;47.406;19.188;2023-03-30T07:05:48;100638.31;;;8.86;63.67
67013;BME280;53926;47.406;19.188;2023-03-30T07:08:15;100638.56;;;9.61;60.36
67013;BME280;53926;47.406;19.188;2023-03-30T07:10:42;100641.38;;;9.24;60.74
67013;BME280;53926;47.406;19.188;2023-03-30T07:13:09;100642.47;;;9.78;59.49
67013;BME280;53926;47.406;19.188;2023-03-30T07:15:35;100651.44;;;9.69;59.26
67013;BME280;53926;47.406;19.188;2023-03-30T07:18:02;100643.91;;;8.89;62.36
67013;BME280;53926;47.406;19.188;2023-03-30T07:20:30;100645.59;;;8.75;62.05
67013;BME280;53926;47.406;19.188;2023-03-30T07:22:56;100655.56;;;8.72;62.36
67013;BME280;53926;47.406;19.188;2023-03-30T07:25:23;100651.72;;;8.68;63.12
67013;BME280;53926;47.406;19.188;2023-03-30T07:27:50;100638.72;;;8.89;63.72
67013;BME280;53926;47.406;19.188;2023-03-30T07:30:16;100645.31;;;9.48;61.93
67013;BME280;53926;47.406;19.188;2023-03-30T07:32:48;100637.03;;;9.73;61.45
67013;BME280;53926;47.406;19.188;2023-03-30T07:35:16;100635.28;;;9.39;60.14
67013;BME280;53926;47.406;19.188;2023-03-30T07:37:43;100634.25;;;9.75;60.34
67013;BME280;53926;47.406;19.188;2023-03-30T07:40:10;100635.75;;;10.04;59.85
67013;BME280;53926;47.406;19.188;2023-03-30T07:42:38;100637.13;;;10.55;58.27
67013;BME280;53926;47.406;19.188;2023-03-30T07:45:05;100641.34;;;11.03;56.26
67013;BME280;53926;47.406;19.188;2023-03-30T07:47:32;100629.50;;;11.14;54.06
67013;BME280;53926;47.406;19.188;2023-03-30T07:49:59;100646.34;;;11.11;54.12
67013;BME280;53926;47.406;19.188;2023-03-30T07:52:25;100641.13;;;11.24;53.86
67013;BME280;53926;47.406;19.188;2023-03-30T07:54:52;100643.34;;;11.79;53.65
67013;BME280;53926;47.406;19.188;2023-03-30T07:57:20;100636.66;;;11.32;53.59
67013;BME280;53926;47.406;19.188;2023-03-30T07:59:47;100641.78;;;11.72;52.52
67013;BME280;53926;47.406;19.188;2023-03-30T08:02:15;100645.59;;;12.85;51.15
67013;BME280;53926;47.406;19.188;2023-03-30T08:04:42;100645.56;;;13.10;51.93
67013;BME280;53926;47.406;19.188;2023-03-30T08:07:10;100644.22;;;12.19;51.66
67013;BME280;53926;47.406;19.188;2023-03-30T08:09:37;100650.34;;;12.69;51.16
67013;BME280;53926;47.406;19.188;2023-03-30T08:12:04;100639.03;;;13.45;49.16
67013;BME280;53926;47.406;19.188;2023-03-30T08:14:31;100637.81;;;13.22;48.77
67013;BME280;53926;47.406;19.188;2023-03-30T08:16:58;100640.56;;;13.27;51.38
67013;BME280;53926;47.406;19.188;2023-03-30T08:19:24;100637.84;;;12.72;50.86
67013;BME280;53926;47.406;19.188;2023-03-30T08:21:54;100637.69;;;12.34;51.92
67013;BME280;53926;47.406;19.188;2023-03-30T08:24:22;100630.78;;;12.72;52.54
67013;BME280;53926;47.406;19.188;2023-03-30T08:26:49;100632.94;;;12.82;50.79
67013;BME280;53926;47.406;19.188;2023-03-30T08:29:16;100632.59;;;13.77;48.49
67013;BME280;53926;47.406;19.188;2023-03-30T08:31:44;100631.81;;;14.38;47.54
67013;BME280;53926;47.406;19.188;2023-03-30T08:34:11;100622.19;;;14.20;46.37
67013;BME280;53926;47.406;19.188;2023-03-30T08:36:37;100612.25;;;14.10;48.21
67013;BME280;53926;47.406;19.188;2023-03-30T08:39:04;100615.38;;;14.73;46.51
67013;BME280;53926;47.406;19.188;2023-03-30T08:41:51;100616.50;;;15.12;45.80
67013;BME280;53926;47.406;19.188;2023-03-30T08:44:36;100616.28;;;14.66;46.51
67013;BME280;53926;47.406;19.188;2023-03-30T08:47:08;100616.34;;;14.48;45.86
67013;BME280;53926;47.406;19.188;2023-03-30T08:52:41;100622.34;;;12.95;52.03
67013;BME280;53926;47.406;19.188;2023-03-30T08:58:08;100623.31;;;13.26;50.46
67013;BME280;53926;47.406;19.188;2023-03-30T09:01:07;100613.63;;;13.08;52.80
67013;BME280;53926;47.406;19.188;2023-03-30T09:03:39;100618.19;;;12.05;55.79
67013;BME280;53926;47.406;19.188;2023-03-30T09:08:34;100616.00;;;13.10;54.03
67013;BME280;53926;47.406;19.188;2023-03-30T09:11:09;100609.03;;;13.03;52.39
67013;BME280;53926;47.406;19.188;2023-03-30T09:13:38;100587.69;;;13.62;51.75
67013;BME280;53926;47.406;19.188;2023-03-30T09:16:27;100584.56;;;13.53;51.57
67013;BME280;53926;47.406;19.188;2023-03-30T09:18:59;100606.75;;;13.51;54.05
67013;BME280;53926;47.406;19.188;2023-03-30T09:21:29;100610.28;;;14.36;49.65
67013;BME280;53926;47.406;19.188;2023-03-30T09:23:58;100600.97;;;14.09;49.60
67013;BME280;53926;47.406;19.188;2023-03-30T09:31:46;100590.06;;;15.02;47.81
67013;BME280;53926;47.406;19.188;2023-03-30T09:34:26;100587.78;;;14.82;48.67
67013;BME280;53926;47.406;19.188;2023-03-30T09:39:34;100584.12;;;13.56;52.12
67013;BME280;53926;47.406;19.188;2023-03-30T09:44:59;100561.75;;;14.33;51.32
67013;BME280;53926;47.406;19.188;2023-03-30T09:47:33;100565.72;;;13.82;52.25
67013;BME280;53926;47.406;19.188;2023-03-30T09:50:08;100565.03;;;15.23;51.07
67013;BME280;53926;47.406;19.188;2023-03-30T09:52:37;100560.38;;;15.13;49.64
67013;BME280;53926;47.406;19.188;2023-03-30T09:57:48;100546.03;;;14.33;51.24
67013;BME280;53926;47.406;19.188;2023-03-30T10:00:36;100548.69;;;14.80;50.72
67013;BME280;53926;47.406;19.188;2023-03-30T10:03:05;100549.75;;;15.32;51.33
67013;BME280;53926;47.406;19.188;2023-03-30T10:05:35;100548.19;;;15.48;48.63
67013;BME280;53926;47.406;19.188;2023-03-30T10:08:05;100544.63;;;16.12;48.37
67013;BME280;53926;47.406;19.188;2023-03-30T10:10:37;100548.59;;;15.80;47.91
67013;BME280;53926;47.406;19.188;2023-03-30T10:13:15;100540.78;;;16.70;48.05
67013;BME280;53926;47.406;19.188;2023-03-30T10:15:45;100545.16;;;18.77;41.42
67013;BME280;53926;47.406;19.188;2023-03-30T10:20:46;100537.81;;;18.04;42.35
67013;BME280;53926;47.406;19.188;2023-03-30T10:23:18;100538.56;;;18.00;41.75
67013;BME280;53926;47.406;19.188;2023-03-30T10:25:46;100526.62;;;15.58;46.91
67013;BME280;53926;47.406;19.188;2023-03-30T10:28:19;100531.97;;;15.91;49.79
67013;BME280;53926;47.406;19.188;2023-03-30T10:30:53;100523.72;;;16.90;45.55
67013;BME280;53926;47.406;19.188;2023-03-30T10:33:21;100524.25;;;17.14;43.86
67013;BME280;53926;47.406;19.188;2023-03-30T10:35:50;100517.56;;;16.84;43.97
67013;BME280;53926;47.406;19.188;2023-03-30T10:38:23;100517.88;;;15.98;46.63
67013;BME280;53926;47.406;19.188;2023-03-30T10:40:54;100507.94;;;15.71;48.10
67013;BME280;53926;47.406;19.188;2023-03-30T10:43:30;100501.81;;;15.65;47.33
67013;BME280;53926;47.406;19.188;2023-03-30T10:46:05;100498.63;;;14.94;49.20
67013;BME280;53926;47.406;19.188;2023-03-30T10:52:12;100486.25;;;14.77;50.72
67013;BME280;53926;47.406;19.188;2023-03-30T10:55:07;100491.78;;;15.33;49.94
67013;BME280;53926;47.406;19.188;2023-03-30T10:57:56;100499.97;;;15.37;49.75
67013;BME280;53926;47.406;19.188;2023-03-30T11:00:52;100482.72;;;16.16;47.23
67013;BME280;53926;47.406;19.188;2023-03-30T11:03:26;100480.53;;;15.79;48.58
67013;BME280;53926;47.406;19.188;2023-03-30T11:06:03;100478.06;;;17.01;47.69
67013;BME280;53926;47.406;19.188;2023-03-30T11:08:34;100463.16;;;17.34;46.07
67013;BME280;53926;47.406;19.188;2023-03-30T11:11:04;100465.28;;;17.10;46.05
67013;BME280;53926;47.406;19.188;2023-03-30T11:16:15;100462.91;;;17.08;47.12
67013;BME280;53926;47.406;19.188;2023-03-30T11:21:29;100460.56;;;15.78;51.36
67013;BME280;53926;47.406;19.188;2023-03-30T11:24:03;100461.03;;;15.46;53.12
67013;BME280;53926;47.406;19.188;2023-03-30T11:26:37;100461.38;;;15.66;51.91
67013;BME280;53926;47.406;19.188;2023-03-30T11:29:30;100462.50;;;14.84;53.87
67013;BME280;53926;47.406;19.188;2023-03-30T11:38:00;100451.03;;;15.43;52.14
67013;BME280;53926;47.406;19.188;2023-03-30T11:43:09;100445.06;;;14.90;54.87
67013;BME280;53926;47.406;19.188;2023-03-30T11:45:48;100444.75;;;13.91;59.62
67013;BME280;53926;47.406;19.188;2023-03-30T11:54:16;100438.38;;;15.11;56.66
67013;BME280;53926;47.406;19.188;2023-03-30T12:00:47;100422.25;;;16.77;50.42
67013;BME280;53926;47.406;19.188;2023-03-30T12:03:41;100403.41;;;16.19;51.59
67013;BME280;53926;47.406;19.188;2023-03-30T12:06:32;100411.03;;;16.59;51.04
67013;BME280;53926;47.406;19.188;2023-03-30T12:12:06;100398.38;;;18.46;46.78
67013;BME280;53926;47.406;19.188;2023-03-30T12:17:46;100379.84;;;17.50;48.17
67013;BME280;53926;47.406;19.188;2023-03-30T12:20:34;100375.81;;;18.12;46.68
67013;BME280;53926;47.406;19.188;2023-03-30T12:26:09;100371.69;;;19.31;44.57
67013;BME280;53926;47.406;19.188;2023-03-30T12:34:23;100362.59;;;18.65;45.65
67013;BME280;53926;47.406;19.188;2023-03-30T12:39:54;100354.94;;;18.64;44.95
67013;BME280;53926;47.406;19.188;2023-03-30T12:42:29;100338.41;;;19.20;43.59
67013;BME280;53926;47.406;19.188;2023-03-30T12:48:28;100329.91;;;18.71;45.64
67013;BME280;53926;47.406;19.188;2023-03-30T12:59:15;100319.56;;;18.54;45.86
67013;BME280;53926;47.406;19.188;2023-03-30T13:04:39;100303.91;;;17.74;48.68
67013;BME280;53926;47.406;19.188;2023-03-30T13:07:20;100302.66;;;16.79;51.46
67013;BME280;53926;47.406;19.188;2023-03-30T13:09:59;100304.97;;;16.76;51.67
67013;BME280;53926;47.406;19.188;2023-03-30T13:20:30;100288.50;;;16.86;50.54
67013;BME280;53926;47.406;19.188;2023-03-30T13:25:35;100287.53;;;17.24;51.61
67013;BME280;53926;47.406;19.188;2023-03-30T13:28:32;100287.81;;;18.13;48.78
67013;BME280;53926;47.406;19.188;2023-03-30T13:45:43;100267.63;;;16.24;54.26
67013;BME280;53926;47.406;19.188;2023-03-30T13:48:34;100269.38;;;15.74;54.30
67013;BME280;53926;47.406;19.188;2023-03-30T13:51:12;100269.78;;;15.83;55.26
67013;BME280;53926;47.406;19.188;2023-03-30T13:53:45;100265.31;;;15.84;55.43
67013;BME280;53926;47.406;19.188;2023-03-30T13:56:12;100261.97;;;15.88;55.50
67013;BME280;53926;47.406;19.188;2023-03-30T13:58:43;100264.97;;;15.97;54.56
67013;BME280;53926;47.406;19.188;2023-03-30T14:01:13;100255.69;;;15.89;54.93
67013;BME280;53926;47.406;19.188;2023-03-30T14:06:22;100246.84;;;15.96;55.43
67013;BME280;53926;47.406;19.188;2023-03-30T14:08:57;100240.78;;;16.17;54.68
67013;BME280;53926;47.406;19.188;2023-03-30T14:14:01;100225.72;;;16.35;56.56
67013;BME280;53926;47.406;19.188;2023-03-30T14:16:36;100214.00;;;15.98;54.82
67013;BME280;53926;47.406;19.188;2023-03-30T14:19:11;100213.53;;;16.23;56.55
67013;BME280;53926;47.406;19.188;2023-03-30T14:21:44;100203.06;;;16.29;55.59
67013;BME280;53926;47.406;19.188;2023-03-30T14:24:15;100205.56;;;16.18;56.43
67013;BME280;53926;47.406;19.188;2023-03-30T14:26:45;100206.25;;;16.08;54.79
67013;BME280;53926;47.406;19.188;2023-03-30T14:29:18;100196.44;;;16.53;55.74
67013;BME280;53926;47.406;19.188;2023-03-30T14:32:01;100197.84;;;16.34;54.95
67013;BME280;53926;47.406;19.188;2023-03-30T14:34:35;100190.78;;;16.67;54.41
67013;BME280;53926;47.406;19.188;2023-03-30T14:37:11;100178.91;;;16.32;54.90
67013;BME280;53926;47.406;19.188;2023-03-30T14:39:47;100173.00;;;16.19;56.82
67013;BME280;53926;47.406;19.188;2023-03-30T14:42:18;100165.59;;;16.11;56.20
67013;BME280;53926;47.406;19.188;2023-03-30T14:44:51;100160.41;;;15.94;56.80
67013;BME280;53926;47.406;19.188;2023-03-30T14:47:24;100157.28;;;15.97;57.11
67013;BME280;53926;47.406;19.188;2023-03-30T14:49:54;100140.56;;;15.81;58.04
67013;BME280;53926;47.406;19.188;2023-03-30T14:52:31;100136.22;;;15.92;58.22
67013;BME280;53926;47.406;19.188;2023-03-30T14:54:58;100127.22;;;16.10;59.72
67013;BME280;53926;47.406;19.188;2023-03-30T14:57:36;100124.06;;;15.86;58.40
67013;BME280;53926;47.406;19.188;2023-03-30T15:00:12;100119.72;;;15.74;58.85
67013;BME280;53926;47.406;19.188;2023-03-30T15:02:45;100107.78;;;15.84;58.43
67013;BME280;53926;47.406;19.188;2023-03-30T15:05:15;100108.53;;;15.79;58.98
67013;BME280;53926;47.406;19.188;2023-03-30T15:07:46;100099.94;;;15.89;59.27
67013;BME280;53926;47.406;19.188;2023-03-30T15:10:44;100107.50;;;15.63;61.55
67013;BME280;53926;47.406;19.188;2023-03-30T15:13:22;100097.91;;;15.74;60.30
67013;BME280;53926;47.406;19.188;2023-03-30T15:15:51;100088.72;;;15.71;59.82
67013;BME280;53926;47.406;19.188;2023-03-30T15:18:23;100089.59;;;15.77;60.96
67013;BME280;53926;47.406;19.188;2023-03-30T15:20:52;100086.84;;;15.67;60.35
67013;BME280;53926;47.406;19.188;2023-03-30T15:23:19;100093.25;;;15.10;63.10
67013;BME280;53926;47.406;19.188;2023-03-30T15:25:47;100081.78;;;15.38;61.86
67013;BME280;53926;47.406;19.188;2023-03-30T15:28:17;100085.28;;;15.44;63.08
67013;BME280;53926;47.406;19.188;2023-03-30T15:30:48;100075.63;;;15.05;62.75
67013;BME280;53926;47.406;19.188;2023-03-30T15:35:48;100060.25;;;14.75;65.48
67013;BME280;53926;47.406;19.188;2023-03-30T15:38:16;100046.12;;;14.59;66.19